createdAt,value
2019-03-05T00:01:24.002Z,2.80
2019-03-05T00:03:52.408Z,3.30
2019-03-05T00:06:20.745Z,3.07
2019-03-05T00:08:49.083Z,3.50
2019-03-05T00:11:17.406Z,3.20
2019-03-05T00:13:45.727Z,3.00
2019-03-05T00:16:14.154Z,2.90
2019-03-05T00:18:42.463Z,2.73
2019-03-05T00:21:10.802Z,3.30
2019-03-05T00:23:46.619Z,3.20
2019-03-05T00:26:14.988Z,3.37
2019-03-05T00:29:02.372Z,3.00
2019-03-05T00:31:32.792Z,3.00
2019-03-05T00:34:14.654Z,3.30
2019-03-05T00:36:54.272Z,2.97
2019-03-05T00:39:32.207Z,2.60
2019-03-05T00:42:22.522Z,2.53
2019-03-05T00:45:18.804Z,2.77
2019-03-05T00:47:52.575Z,2.90
2019-03-05T00:50:28.099Z,2.40
2019-03-05T00:53:18.185Z,2.83
2019-03-05T00:55:54.455Z,2.37
2019-03-05T00:58:34.021Z,2.20
2019-03-05T01:01:39.521Z,2.50
2019-03-05T01:04:32.626Z,2.40
2019-03-05T01:07:00.974Z,2.83
2019-03-05T01:09:29.403Z,2.10
2019-03-05T01:11:57.822Z,2.17
2019-03-05T01:14:26.255Z,1.87
2019-03-05T01:16:54.578Z,2.50
2019-03-05T01:19:22.935Z,2.47
2019-03-05T01:21:51.369Z,2.10
2019-03-05T01:24:19.689Z,3.07
2019-03-05T01:26:48.002Z,2.40
2019-03-05T01:29:16.419Z,2.30
2019-03-05T01:32:03.802Z,2.40
2019-03-05T01:35:06.213Z,1.80
2019-03-05T01:37:34.639Z,2.27
2019-03-05T01:40:11.746Z,2.53
2019-03-05T01:42:40.167Z,2.03
2019-03-05T01:45:09.410Z,2.30
2019-03-05T01:47:37.723Z,2.20
2019-03-05T01:50:06.258Z,2.20
2019-03-05T01:52:34.610Z,2.03
2019-03-05T01:55:02.927Z,1.80
2019-03-05T01:57:31.259Z,2.00
2019-03-05T01:59:59.595Z,1.80
2019-03-05T02:02:28.550Z,2.67
2019-03-05T02:04:56.978Z,2.13
2019-03-05T02:07:25.322Z,1.77
2019-03-05T02:09:53.766Z,1.90
2019-03-05T02:12:22.182Z,1.77
2019-03-05T02:14:50.507Z,1.77
2019-03-05T02:17:18.841Z,1.50
2019-03-05T02:19:47.951Z,1.63
2019-03-05T02:22:35.249Z,2.33
2019-03-05T02:25:05.775Z,2.70
2019-03-05T02:27:53.090Z,1.33
2019-03-05T02:30:33.803Z,1.67
2019-03-05T02:33:36.491Z,1.57
2019-03-05T02:36:29.815Z,1.70
2019-03-05T02:39:01.086Z,1.20
2019-03-05T02:41:51.315Z,1.50
2019-03-05T02:44:44.564Z,2.07
2019-03-05T02:47:39.921Z,1.63
2019-03-05T02:50:25.999Z,1.47
2019-03-05T02:53:03.945Z,1.33
2019-03-05T02:55:39.448Z,1.60
2019-03-05T02:58:06.801Z,1.33
2019-03-05T03:00:54.017Z,1.30
2019-03-05T03:03:29.843Z,1.50
2019-03-05T03:06:11.659Z,1.40
2019-03-05T03:08:39.985Z,1.47
2019-03-05T03:11:08.320Z,1.63
2019-03-05T03:13:36.663Z,1.63
2019-03-05T03:16:05.120Z,1.53
2019-03-05T03:18:33.531Z,1.30
2019-03-05T03:21:01.854Z,1.13
2019-03-05T03:23:30.300Z,1.10
2019-03-05T03:25:58.631Z,0.90
2019-03-05T03:28:27.099Z,1.50
2019-03-05T03:30:55.440Z,1.03
2019-03-05T03:33:23.875Z,0.93
2019-03-05T03:35:52.244Z,0.80
2019-03-05T03:38:20.595Z,0.93
2019-03-05T03:40:49.011Z,1.13
2019-03-05T03:43:17.320Z,0.90
2019-03-05T03:45:45.677Z,0.90
2019-03-05T03:48:14.780Z,1.20
2019-03-05T03:50:43.142Z,0.90
2019-03-05T03:53:11.474Z,1.07
2019-03-05T03:55:39.932Z,0.90
2019-03-05T03:58:08.357Z,0.90
2019-03-05T04:00:36.781Z,0.93
2019-03-05T04:03:05.137Z,1.10
2019-03-05T04:05:33.579Z,1.60
2019-03-05T04:08:01.951Z,0.73
2019-03-05T04:10:30.313Z,1.00
2019-03-05T04:12:58.637Z,1.40
2019-03-05T04:15:27.076Z,1.87
2019-03-05T04:17:55.498Z,1.50
2019-03-05T04:20:48.966Z,1.07
2019-03-05T04:23:17.402Z,1.10
2019-03-05T04:25:45.732Z,1.10
2019-03-05T04:28:14.058Z,0.97
2019-03-05T04:30:42.394Z,1.23
2019-03-05T04:33:10.727Z,1.30
2019-03-05T04:35:39.173Z,1.40
2019-03-05T04:38:07.551Z,1.07
2019-03-05T04:40:35.879Z,0.97
2019-03-05T04:43:04.206Z,1.50
2019-03-05T04:45:55.204Z,1.03
2019-03-05T04:48:23.625Z,0.87
2019-03-05T04:50:58.207Z,0.90
2019-03-05T04:53:26.628Z,1.30
2019-03-05T04:55:54.950Z,1.47
2019-03-05T04:58:23.285Z,1.50
2019-03-05T05:00:51.630Z,1.47
2019-03-05T05:03:20.074Z,1.50
2019-03-05T05:05:48.426Z,1.03
2019-03-05T05:08:17.125Z,0.90
2019-03-05T05:10:45.533Z,1.30
2019-03-05T05:13:13.876Z,1.20
2019-03-05T05:15:42.216Z,1.23
2019-03-05T05:18:10.539Z,1.17
2019-03-05T05:20:38.976Z,1.20
2019-03-05T05:23:07.302Z,1.00
2019-03-05T05:25:35.648Z,1.27
2019-03-05T05:28:04.064Z,1.00
2019-03-05T05:30:33.445Z,1.07
2019-03-05T05:33:02.286Z,1.33
2019-03-05T05:35:30.823Z,1.53
2019-03-05T05:37:59.164Z,0.90
2019-03-05T05:40:34.637Z,1.43
2019-03-05T05:43:03.201Z,1.40
2019-03-05T05:45:36.387Z,1.47
2019-03-05T05:48:04.866Z,1.37
2019-03-05T05:50:33.198Z,1.43
2019-03-05T05:53:01.575Z,1.70
2019-03-05T05:55:29.874Z,1.17
2019-03-05T05:57:58.311Z,1.03
2019-03-05T06:00:26.863Z,1.70
2019-03-05T06:02:55.200Z,1.10
2019-03-05T06:05:23.544Z,0.80
2019-03-05T06:07:51.892Z,1.30
2019-03-05T06:10:20.206Z,1.60
2019-03-05T06:12:48.554Z,1.43
2019-03-05T06:15:16.984Z,2.10
2019-03-05T06:17:45.299Z,1.43
2019-03-05T06:20:14.024Z,1.73
2019-03-05T06:22:42.816Z,1.93
2019-03-05T06:25:11.263Z,2.17
2019-03-05T06:27:39.570Z,1.70
2019-03-05T06:30:08.984Z,1.60
2019-03-05T06:32:37.359Z,1.40
2019-03-05T06:35:05.807Z,2.70
2019-03-05T06:37:34.139Z,1.73
2019-03-05T06:40:02.579Z,2.33
2019-03-05T06:42:30.898Z,2.17
2019-03-05T06:44:59.316Z,2.40
2019-03-05T06:47:27.666Z,1.93
2019-03-05T06:49:55.986Z,2.10
2019-03-05T06:52:24.302Z,2.00
2019-03-05T06:54:52.646Z,2.37
2019-03-05T06:57:20.956Z,2.23
2019-03-05T06:59:49.282Z,2.27
2019-03-05T07:02:17.720Z,3.20
2019-03-05T07:04:56.759Z,2.40
2019-03-05T07:07:26.015Z,9.00
2019-03-05T07:10:16.081Z,3.30
2019-03-05T07:12:49.939Z,2.80
2019-03-05T07:15:40.094Z,2.17
2019-03-05T07:18:14.073Z,4.00
2019-03-05T07:21:00.173Z,3.73
2019-03-05T07:23:50.677Z,2.57
2019-03-05T07:26:19.037Z,3.33
2019-03-05T07:28:47.371Z,4.37
2019-03-05T07:31:15.740Z,3.80
2019-03-05T07:33:44.067Z,3.20
2019-03-05T07:36:12.382Z,2.50
2019-03-05T07:38:40.711Z,2.00
2019-03-05T07:41:09.033Z,1.83
2019-03-05T07:43:37.362Z,2.60
2019-03-05T07:46:05.732Z,1.90
2019-03-05T07:48:34.065Z,3.50
2019-03-05T07:51:02.511Z,2.43
2019-03-05T07:53:30.834Z,2.13
2019-03-05T07:55:59.167Z,2.40
2019-03-05T07:58:27.485Z,2.17
2019-03-05T08:00:55.844Z,2.80
2019-03-05T08:03:24.176Z,2.60
2019-03-05T08:05:52.503Z,3.00
2019-03-05T08:08:38.302Z,2.30
2019-03-05T08:11:06.660Z,2.63
2019-03-05T08:13:53.971Z,3.23
2019-03-05T08:16:29.132Z,3.13
2019-03-05T08:18:57.626Z,3.10
2019-03-05T08:21:26.083Z,2.20
2019-03-05T08:23:54.528Z,2.47
2019-03-05T08:26:22.859Z,2.20
2019-03-05T08:28:51.224Z,1.93
2019-03-05T08:31:19.648Z,1.83
2019-03-05T08:33:48.107Z,2.13
2019-03-05T08:36:16.433Z,2.70
2019-03-05T08:38:44.866Z,1.93
2019-03-05T08:41:13.315Z,2.03
2019-03-05T08:43:41.723Z,2.17
2019-03-05T08:46:10.173Z,2.03
2019-03-05T08:48:38.527Z,2.07
2019-03-05T08:51:07.063Z,2.20
2019-03-05T08:53:35.390Z,1.73
2019-03-05T08:56:04.123Z,1.83
2019-03-05T08:58:32.464Z,1.73
2019-03-05T09:01:00.796Z,1.80
2019-03-05T09:03:29.144Z,1.47
2019-03-05T09:05:57.474Z,1.77
2019-03-05T09:08:26.001Z,1.53
2019-03-05T09:10:54.748Z,1.60
2019-03-05T09:13:32.204Z,1.20
2019-03-05T09:15:53.583Z,1.90
2019-03-05T09:18:21.960Z,1.57
2019-03-05T09:20:50.337Z,1.43
2019-03-05T09:23:18.662Z,1.90
2019-03-05T09:25:46.997Z,1.20
2019-03-05T09:28:15.326Z,1.20
2019-03-05T09:30:43.663Z,1.33
2019-03-05T09:33:11.998Z,1.00
2019-03-05T09:35:40.428Z,1.00
2019-03-05T09:38:08.743Z,1.30
2019-03-05T09:40:37.161Z,1.00
2019-03-05T09:43:05.479Z,1.13
2019-03-05T09:45:33.828Z,0.90
2019-03-05T09:48:02.150Z,0.80
2019-03-05T09:50:32.202Z,0.73
2019-03-05T09:53:00.656Z,1.13
2019-03-05T09:55:34.297Z,1.23
2019-03-05T09:58:08.052Z,1.33
2019-03-05T10:00:32.766Z,1.10
2019-03-05T10:03:01.119Z,1.27
2019-03-05T10:05:29.425Z,0.83
2019-03-05T10:07:57.770Z,0.80
2019-03-05T10:10:26.651Z,0.50
2019-03-05T10:12:59.187Z,1.23
2019-03-05T10:15:25.663Z,0.90
2019-03-05T10:17:54.088Z,0.97
2019-03-05T10:20:22.690Z,1.27
2019-03-05T10:22:51.494Z,0.90
2019-03-05T10:25:21.015Z,0.77
2019-03-05T10:27:49.453Z,0.90
2019-03-05T10:30:25.039Z,0.90
2019-03-05T10:32:51.680Z,0.90
2019-03-05T10:35:21.368Z,1.00
2019-03-05T10:37:49.795Z,1.50
2019-03-05T10:40:18.051Z,1.40
2019-03-05T10:42:46.598Z,1.07
2019-03-05T10:45:15.695Z,0.87
2019-03-05T10:47:44.118Z,1.23
2019-03-05T10:50:15.502Z,1.40
2019-03-05T10:52:44.213Z,1.03
2019-03-05T10:55:12.858Z,1.50
2019-03-05T10:57:41.191Z,1.07
2019-03-05T11:00:11.755Z,1.27
2019-03-05T11:02:40.079Z,1.00
2019-03-05T11:05:08.586Z,0.90
2019-03-05T11:07:37.030Z,1.00
2019-03-05T11:10:06.290Z,1.13
2019-03-05T11:12:35.131Z,1.20
2019-03-05T11:15:03.483Z,1.10
2019-03-05T11:17:33.481Z,1.00
2019-03-05T11:20:01.798Z,0.70
2019-03-05T11:22:30.242Z,1.10
2019-03-05T11:24:58.597Z,0.90
2019-03-05T11:27:26.914Z,1.20
2019-03-05T11:29:55.234Z,0.63
2019-03-05T11:32:23.562Z,0.50
2019-03-05T11:34:51.923Z,0.87
2019-03-05T11:37:20.359Z,1.13
2019-03-05T11:39:48.694Z,1.40
2019-03-05T11:42:17.227Z,1.17
2019-03-05T11:44:58.863Z,0.67
2019-03-05T11:47:15.862Z,0.70
2019-03-05T11:49:44.887Z,0.80
2019-03-05T11:52:13.539Z,1.37
2019-03-05T11:54:41.871Z,1.20
2019-03-05T11:57:10.221Z,0.80
2019-03-05T11:59:38.531Z,1.07
2019-03-05T12:02:07.042Z,0.70
2019-03-05T12:04:35.355Z,0.83
2019-03-05T12:07:03.790Z,0.90
2019-03-05T12:09:32.147Z,1.10
2019-03-05T12:12:00.588Z,0.70
2019-03-05T12:14:28.900Z,0.90
2019-03-05T12:16:57.247Z,0.70
2019-03-05T12:19:25.560Z,0.80
2019-03-05T12:21:54.049Z,0.77
2019-03-05T12:24:24.159Z,0.73
2019-03-05T12:26:52.351Z,0.50
2019-03-05T12:29:20.706Z,1.13
2019-03-05T12:31:49.018Z,0.90
2019-03-05T12:34:17.365Z,0.70
2019-03-05T12:36:45.706Z,0.93
2019-03-05T12:39:15.723Z,1.13
2019-03-05T12:41:44.081Z,1.20
2019-03-05T12:44:12.424Z,0.90
2019-03-05T12:46:40.759Z,0.93
2019-03-05T12:49:09.086Z,0.80
2019-03-05T12:51:37.419Z,0.90
2019-03-05T12:54:05.756Z,0.80
2019-03-05T12:56:34.098Z,0.80
2019-03-05T12:59:02.571Z,0.73
2019-03-05T13:01:30.899Z,0.80
2019-03-05T13:03:59.211Z,0.70
2019-03-05T13:06:27.546Z,0.80
2019-03-05T13:08:55.871Z,0.97
2019-03-05T13:11:24.220Z,0.67
2019-03-05T13:14:05.396Z,0.90
2019-03-05T13:16:22.510Z,0.87
2019-03-05T13:18:50.846Z,1.20
2019-03-05T13:21:19.163Z,1.00
2019-03-05T13:23:47.487Z,0.80
2019-03-05T13:26:15.821Z,0.80
2019-03-05T13:28:44.225Z,0.90
2019-03-05T13:31:12.547Z,0.87
2019-03-05T13:33:42.173Z,1.37
2019-03-05T13:36:12.492Z,0.83
2019-03-05T13:38:41.702Z,1.00
2019-03-05T13:41:12.203Z,1.10
2019-03-05T13:43:41.121Z,0.93
2019-03-05T13:46:09.459Z,0.80
2019-03-05T13:48:58.666Z,0.90
2019-03-05T13:51:48.747Z,0.73
2019-03-05T13:54:39.034Z,1.50
2019-03-05T13:57:25.343Z,1.03
2019-03-05T13:59:54.091Z,0.97
2019-03-05T14:02:32.747Z,0.70
2019-03-05T14:05:03.246Z,0.90
2019-03-05T14:07:49.099Z,1.53
2019-03-05T14:10:17.555Z,0.83
2019-03-05T14:12:45.899Z,0.90
2019-03-05T14:15:14.507Z,1.03
2019-03-05T14:17:44.503Z,0.70
2019-03-05T14:20:14.789Z,0.83
2019-03-05T14:22:43.214Z,0.70
2019-03-05T14:25:12.746Z,1.40
2019-03-05T14:27:41.454Z,0.93
2019-03-05T14:30:12.079Z,1.13
2019-03-05T14:32:40.681Z,0.80
2019-03-05T14:35:10.779Z,0.63
2019-03-05T14:37:41.327Z,0.70
2019-03-05T14:40:23.537Z,0.73
2019-03-05T14:42:41.789Z,1.47
2019-03-05T14:45:12.837Z,1.40
2019-03-05T14:47:41.383Z,1.17
2019-03-05T14:50:09.806Z,0.90
2019-03-05T14:52:38.163Z,0.80
2019-03-05T14:55:07.102Z,0.80
2019-03-05T14:57:35.404Z,1.17
2019-03-05T15:00:03.938Z,0.80
2019-03-05T15:02:32.389Z,0.87
2019-03-05T15:05:00.692Z,0.90
2019-03-05T15:07:29.002Z,1.10
2019-03-05T15:09:57.418Z,1.40
2019-03-05T15:12:25.861Z,1.27
2019-03-05T15:14:54.202Z,0.93
2019-03-05T15:17:22.693Z,0.90
2019-03-05T15:19:51.576Z,0.80
2019-03-05T15:22:19.914Z,0.80
2019-03-05T15:24:48.276Z,1.27
2019-03-05T15:27:16.587Z,1.07
2019-03-05T15:29:44.937Z,1.07
2019-03-05T15:32:13.245Z,0.70
2019-03-05T15:34:41.753Z,0.80
2019-03-05T15:37:10.141Z,0.63
2019-03-05T15:39:38.484Z,0.80
2019-03-05T15:42:06.939Z,1.00
2019-03-05T15:44:35.231Z,1.10
2019-03-05T15:47:03.561Z,1.10
2019-03-05T15:49:31.903Z,1.20
2019-03-05T15:52:00.235Z,1.03
2019-03-05T15:54:28.652Z,1.20
2019-03-05T15:56:56.986Z,0.70
2019-03-05T15:59:25.345Z,1.13
2019-03-05T16:01:53.689Z,1.13
2019-03-05T16:04:22.023Z,1.27
2019-03-05T16:06:50.379Z,1.30
2019-03-05T16:09:18.727Z,1.50
2019-03-05T16:11:47.135Z,0.80
2019-03-05T16:14:15.485Z,1.10
2019-03-05T16:16:43.927Z,1.23
2019-03-05T16:19:16.253Z,1.50
2019-03-05T16:21:42.862Z,1.17
2019-03-05T16:24:11.556Z,1.33
2019-03-05T16:26:39.990Z,1.10
2019-03-05T16:29:09.154Z,1.23
2019-03-05T16:31:49.776Z,1.00
2019-03-05T16:34:45.915Z,1.10
2019-03-05T16:37:30.317Z,1.50
2019-03-05T16:40:08.956Z,1.10
2019-03-05T16:42:59.550Z,1.00
2019-03-05T16:45:55.760Z,1.23
2019-03-05T16:48:45.978Z,1.00
2019-03-05T16:51:39.126Z,1.13
2019-03-05T16:54:29.474Z,1.53
2019-03-05T16:57:19.716Z,1.23
2019-03-05T17:00:05.734Z,1.30
2019-03-05T17:03:02.052Z,1.20
2019-03-05T17:05:46.622Z,1.23
2019-03-05T17:08:43.416Z,1.00
2019-03-05T17:11:31.075Z,1.13
2019-03-05T17:13:59.650Z,1.10
2019-03-05T17:16:28.462Z,1.53
2019-03-05T17:18:56.848Z,1.20
2019-03-05T17:21:27.699Z,0.73
2019-03-05T17:23:55.189Z,1.23
2019-03-05T17:26:23.624Z,1.30
2019-03-05T17:28:52.053Z,1.17
2019-03-05T17:31:20.514Z,2.63
2019-03-05T17:33:48.858Z,1.53
2019-03-05T17:36:17.296Z,1.37
2019-03-05T17:38:45.821Z,1.27
2019-03-05T17:41:14.200Z,1.53
2019-03-05T17:43:42.556Z,1.43
2019-03-05T17:46:11.010Z,1.50
2019-03-05T17:48:39.341Z,1.27
2019-03-05T17:51:08.646Z,1.20
2019-03-05T17:53:37.764Z,1.63
2019-03-05T17:56:06.419Z,1.83
2019-03-05T17:58:35.275Z,1.63
2019-03-05T18:01:04.319Z,1.90
2019-03-05T18:03:32.753Z,1.87
2019-03-05T18:06:01.152Z,1.87
2019-03-05T18:08:29.443Z,2.00
2019-03-05T18:10:57.983Z,3.40
2019-03-05T18:13:26.439Z,2.17
2019-03-05T18:15:54.938Z,2.07
2019-03-05T18:18:23.274Z,2.20
2019-03-05T18:20:51.956Z,2.50
2019-03-05T18:23:21.014Z,1.40
2019-03-05T18:25:49.520Z,2.83
2019-03-05T18:28:17.969Z,2.50
2019-03-05T18:30:47.237Z,2.20
2019-03-05T18:33:15.580Z,2.30
2019-03-05T18:35:44.103Z,1.80
2019-03-05T18:38:12.675Z,2.00
2019-03-05T18:40:41.014Z,2.10
2019-03-05T18:43:09.489Z,2.43
2019-03-05T18:45:38.124Z,2.30
2019-03-05T18:48:07.104Z,2.70
2019-03-05T18:50:35.822Z,2.37
2019-03-05T18:53:04.672Z,2.50
2019-03-05T18:55:33.842Z,3.37
2019-03-05T18:58:03.263Z,3.00
2019-03-05T19:00:31.923Z,3.40
2019-03-05T19:03:00.944Z,3.30
2019-03-05T19:05:30.384Z,2.87
2019-03-05T19:07:59.191Z,3.23
2019-03-05T19:10:28.425Z,3.47
2019-03-05T19:12:56.923Z,3.27
2019-03-05T19:15:25.687Z,3.40
2019-03-05T19:17:54.509Z,3.67
2019-03-05T19:20:24.033Z,4.07
2019-03-05T19:22:52.493Z,3.03
2019-03-05T19:25:22.017Z,2.90
2019-03-05T19:27:50.473Z,3.20
2019-03-05T19:30:23.067Z,3.10
2019-03-05T19:32:51.571Z,2.63
2019-03-05T19:35:20.185Z,3.00
2019-03-05T19:37:48.945Z,2.90
2019-03-05T19:40:18.862Z,2.97
2019-03-05T19:42:47.845Z,3.07
2019-03-05T19:45:16.712Z,3.23
2019-03-05T19:47:45.537Z,3.23
2019-03-05T19:50:15.242Z,3.17
2019-03-05T19:52:44.029Z,3.23
2019-03-05T19:55:13.814Z,4.03
2019-03-05T19:57:43.284Z,4.43
2019-03-05T20:00:16.517Z,3.43
2019-03-05T20:02:45.360Z,3.47
2019-03-05T20:05:15.053Z,3.23
2019-03-05T20:07:44.071Z,3.20
2019-03-05T20:10:14.887Z,2.70
2019-03-05T20:12:43.670Z,3.27
2019-03-05T20:15:13.485Z,4.00
2019-03-05T20:17:42.273Z,4.60
2019-03-05T20:20:11.129Z,5.17
2019-03-05T20:22:39.816Z,4.67
2019-03-05T20:25:10.590Z,4.17
2019-03-05T20:27:39.673Z,4.33
2019-03-05T20:30:10.440Z,3.83
2019-03-05T20:32:40.751Z,3.80
2019-03-05T20:35:09.544Z,4.03
2019-03-05T20:37:38.248Z,4.37
2019-03-05T20:40:08.303Z,3.93
2019-03-05T20:42:37.477Z,3.67
2019-03-05T20:45:08.350Z,4.40
2019-03-05T20:47:37.209Z,4.07
2019-03-05T20:50:06.229Z,4.33
2019-03-05T20:52:35.026Z,4.30
2019-03-05T20:55:04.387Z,4.47
2019-03-05T20:57:33.174Z,4.97
2019-03-05T21:00:01.851Z,4.23
2019-03-05T21:02:30.513Z,4.60
2019-03-05T21:04:59.204Z,4.37
2019-03-05T21:07:28.301Z,4.37
2019-03-05T21:09:56.966Z,4.33
2019-03-05T21:12:25.650Z,3.93
2019-03-05T21:14:54.371Z,4.30
2019-03-05T21:17:23.074Z,4.73
2019-03-05T21:19:52.286Z,4.47
2019-03-05T21:22:21.023Z,4.10
2019-03-05T21:24:49.709Z,4.07
2019-03-05T21:27:18.423Z,4.30
2019-03-05T21:29:47.157Z,3.93
2019-03-05T21:32:16.240Z,3.83
2019-03-05T21:34:46.960Z,4.00
2019-03-05T21:37:15.182Z,4.03
2019-03-05T21:39:43.876Z,5.70
2019-03-05T21:42:12.558Z,4.53
2019-03-05T21:44:41.525Z,3.60
2019-03-05T21:47:10.210Z,3.67
2019-03-05T21:49:38.922Z,3.87
2019-03-05T21:52:07.756Z,3.93
2019-03-05T21:54:36.522Z,3.30
2019-03-05T21:57:05.316Z,3.37
2019-03-05T21:59:34.133Z,3.67
2019-03-05T22:02:02.938Z,3.47
2019-03-05T22:04:31.623Z,3.00
2019-03-05T22:07:00.272Z,2.77
2019-03-05T22:09:29.101Z,2.80
2019-03-05T22:11:58.243Z,3.10
2019-03-05T22:14:27.083Z,3.50
2019-03-05T22:16:55.434Z,3.57
2019-03-05T22:19:24.016Z,2.97
2019-03-05T22:21:52.922Z,3.00
2019-03-05T22:24:21.272Z,2.90
2019-03-05T22:26:49.614Z,2.40
2019-03-05T22:29:18.051Z,2.13
2019-03-05T22:31:46.409Z,2.97
2019-03-05T22:34:15.147Z,2.67
2019-03-05T22:36:43.471Z,2.90
2019-03-05T22:39:11.931Z,4.23
2019-03-05T22:41:40.267Z,2.60
2019-03-05T22:44:08.601Z,2.47
2019-03-05T22:46:36.956Z,4.17
2019-03-05T22:49:05.294Z,2.67
2019-03-05T22:51:33.614Z,2.77
2019-03-05T22:54:01.986Z,3.70
2019-03-05T22:56:30.314Z,3.10
2019-03-05T22:58:58.637Z,3.03
2019-03-05T23:01:33.201Z,2.50
2019-03-05T23:04:01.691Z,3.00
2019-03-05T23:06:30.544Z,3.60
2019-03-05T23:08:58.874Z,2.93
2019-03-05T23:11:27.890Z,4.17
2019-03-05T23:13:56.268Z,3.03
2019-03-05T23:16:24.689Z,3.60
2019-03-05T23:18:53.051Z,3.10
2019-03-05T23:21:21.668Z,3.10
2019-03-05T23:23:50.090Z,3.60
2019-03-05T23:26:18.571Z,3.43
2019-03-05T23:28:47.007Z,3.00
2019-03-05T23:31:15.426Z,3.07
2019-03-05T23:33:43.975Z,2.70
2019-03-05T23:36:12.420Z,3.27
2019-03-05T23:38:40.765Z,2.73
2019-03-05T23:41:09.114Z,2.77
2019-03-05T23:43:37.501Z,3.20
2019-03-05T23:46:05.912Z,2.90
2019-03-05T23:48:34.246Z,2.63
2019-03-05T23:51:02.595Z,2.97
2019-03-05T23:53:30.915Z,6.93
2019-03-05T23:55:59.290Z,2.83
2019-03-05T23:58:27.651Z,2.50
